Time;durP1;ratioP1;P1;durP2;ratioP2;P2;SDS_P1;SDS_P2;PMS_P1;PMS_P2;Temp;Humidity;BMP_temperature;BMP_pressure;BME280_temperature;BME280_humidity;BME280_pressure;Samples;Min_cycle;Max_cycle;Signal;HPM_P1;HPM_P2
2021/11/22 00:01:06;;;;;;;22.17;10.52;;;;;;;3.28;100.00;96778.28;5062881;28;20057;-65
2021/11/22 00:03:34;;;;;;;20.15;9.30;;;;;;;2.79;100.00;96705.13;5063429;28;20049;-64
2021/11/22 00:06:01;;;;;;;21.15;9.10;;;;;;;3.19;100.00;96769.31;5063219;28;20052;-64
2021/11/22 00:08:27;;;;;;;23.92;10.50;;;;;;;3.18;100.00;96767.69;5063416;28;20056;-63
2021/11/22 00:10:54;;;;;;;22.33;10.30;;;;;;;3.23;100.00;96767.50;5061849;28;20268;-63
2021/11/22 00:13:21;;;;;;;24.52;10.55;;;;;;;2.97;100.00;96701.19;5063239;28;20060;-65
2021/11/22 00:15:48;;;;;;;22.60;12.20;;;;;;;2.98;100.00;96702.78;5063032;28;20511;-64
2021/11/22 00:18:15;;;;;;;30.33;13.73;;;;;;;3.40;100.00;96770.13;5062159;28;20055;-63
2021/11/22 00:20:41;;;;;;;33.20;14.52;;;;;;;3.33;100.00;96774.53;5061591;28;20075;-63
2021/11/22 00:23:08;;;;;;;25.95;11.57;;;;;;;3.22;100.00;96749.50;5073269;28;20446;-64
2021/11/22 00:25:35;;;;;;;34.83;14.48;;;;;;;3.40;100.00;96781.09;5083188;28;20052;-63
2021/11/22 00:28:02;;;;;;;29.50;15.07;;;;;;;3.33;99.85;96780.81;5081932;28;20052;-63
2021/11/22 00:30:29;;;;;;;33.28;15.40;;;;;;;0.59;99.59;96339.78;5082946;28;20048;-65
2021/11/22 00:32:58;;;;;;;31.83;15.48;;;;;;;3.23;100.00;96781.19;5083049;28;20052;-64
2021/11/22 00:35:32;;;;;;;35.53;16.20;;;;;;;3.20;100.00;96770.09;5081864;28;20420;-65
2021/11/22 00:38:05;;;;;;;36.97;16.45;;;;;;;3.09;100.00;96780.63;5083812;28;20056;-63
2021/11/22 00:40:33;;;;;;;54.15;24.65;;;;;;;3.26;99.72;96772.31;5087193;28;20059;-64
2021/11/22 00:43:01;;;;;;;51.13;23.83;;;;;;;2.97;100.00;96737.53;5087189;28;20499;-63
2021/11/22 00:45:29;;;;;;;52.80;22.38;;;;;;;3.18;100.00;96778.63;5085905;28;20454;-64
2021/11/22 00:47:59;;;;;;;30.27;16.20;;;;;;;3.15;100.00;96773.81;5085284;28;20131;-64
2021/11/22 00:50:27;;;;;;;38.67;17.92;;;;;;;2.79;100.00;96707.84;5087041;28;20066;-63
2021/11/22 00:52:54;;;;;;;31.95;15.32;;;;;;;3.39;100.00;96767.75;5084951;28;20511;-63
2021/11/22 00:55:22;;;;;;;28.65;12.95;;;;;;;3.42;100.00;96769.81;5085505;28;20055;-63
2021/11/22 00:57:49;;;;;;;26.70;12.45;;;;;;;3.03;100.00;96717.06;5086682;28;20060;-63
2021/11/22 01:00:18;;;;;;;33.05;13.07;;;;;;;3.15;100.00;96746.47;5086770;28;20698;-64
2021/11/22 01:02:45;;;;;;;24.80;11.95;;;;;;;3.27;100.00;96771.19;5086379;28;20048;-63
2021/11/22 01:05:12;;;;;;;33.42;15.93;;;;;;;3.18;100.00;96773.16;5086672;28;20151;-63
2021/11/22 01:07:39;;;;;;;31.33;14.50;;;;;;;3.16;100.00;96769.16;5084959;28;20503;-64
2021/11/22 01:10:07;;;;;;;29.50;14.32;;;;;;;3.13;100.00;96762.41;5086578;28;20048;-64
2021/11/22 01:12:35;;;;;;;28.00;13.70;;;;;;;3.09;100.00;96758.72;5086379;28;20052;-63
2021/11/22 01:15:07;;;;;;;30.95;14.63;;;;;;;2.73;100.00;96711.91;5086371;28;20052;-63
2021/11/22 01:17:34;;;;;;;34.92;13.85;;;;;;;2.71;100.00;96681.34;5086290;28;20052;-65
2021/11/22 01:20:02;;;;;;;30.13;13.05;;;;;;;2.32;100.00;96673.47;5086868;28;20048;-63
2021/11/22 01:22:29;;;;;;;42.38;14.82;;;;;;;2.71;100.00;96758.72;5079742;28;20053;-63
2021/11/22 01:24:56;;;;;;;60.88;22.75;;;;;;;2.07;100.00;96638.84;5064334;28;20055;-63
2021/11/22 01:27:43;;;;;;;66.93;24.42;;;;;;;2.85;100.00;96742.09;5064587;28;20048;-63
2021/11/22 01:30:11;;;;;;;58.97;19.77;;;;;;;2.92;100.00;96731.47;5065835;28;20060;-64
2021/11/22 01:32:40;;;;;;;53.53;15.48;;;;;;;3.15;100.00;96757.41;5064340;28;20052;-63
2021/11/22 01:35:08;;;;;;;37.42;15.73;;;;;;;2.44;100.00;96692.72;5064391;28;20052;-63
2021/11/22 01:37:35;;;;;;;28.67;12.68;;;;;;;2.96;100.00;96748.81;5065498;28;20080;-63
2021/11/22 01:40:05;;;;;;;29.30;13.52;;;;;;;2.18;99.85;96645.56;5066055;28;20507;-65
2021/11/22 01:42:32;;;;;;;28.52;10.80;;;;;;;1.83;100.00;96584.78;5065778;28;20060;-63
2021/11/22 01:44:58;;;;;;;19.48;8.38;;;;;;;2.73;100.00;96709.19;5064512;28;20079;-64
2021/11/22 01:47:25;;;;;;;22.45;9.93;;;;;;;2.23;100.00;96626.28;5065268;28;20055;-62
2021/11/22 01:49:52;;;;;;;21.85;10.35;;;;;;;2.99;100.00;96748.94;5065090;28;20059;-64
2021/11/22 01:52:19;;;;;;;16.67;7.80;;;;;;;2.46;100.00;96676.81;5064977;28;20048;-63
2021/11/22 01:54:45;;;;;;;39.10;14.25;;;;;;;2.96;100.00;96754.28;5065437;28;20056;-64
2021/11/22 01:57:12;;;;;;;30.33;11.63;;;;;;;2.26;100.00;96752.06;5065069;28;20048;-63
2021/11/22 01:59:39;;;;;;;19.48;9.75;;;;;;;1.78;100.00;96690.63;5065480;28;20122;-64
2021/11/22 02:02:06;;;;;;;20.23;9.02;;;;;;;2.25;99.63;96749.66;5063472;28;20836;-63
2021/11/22 02:04:33;;;;;;;18.45;9.18;;;;;;;2.28;99.63;96759.94;5065246;28;20063;-63
2021/11/22 02:07:00;;;;;;;24.85;10.55;;;;;;;2.16;99.77;96729.75;5063187;28;20055;-64
2021/11/22 02:09:27;;;;;;;31.35;14.65;;;;;;;2.32;100.00;96745.34;5065362;28;20053;-64
2021/11/22 02:11:54;;;;;;;25.15;13.07;;;;;;;-0.03;100.00;96388.34;5064370;28;20054;-64
2021/11/22 02:14:21;;;;;;;38.97;14.98;;;;;;;2.37;100.00;96752.56;5064705;28;20063;-63
2021/11/22 02:16:48;;;;;;;28.13;13.50;;;;;;;2.21;100.00;96737.78;5064960;28;20056;-63
2021/11/22 02:19:14;;;;;;;42.88;16.92;;;;;;;2.34;100.00;96759.47;5065012;28;20435;-63
2021/11/22 02:21:43;;;;;;;64.00;26.00;;;;;;;2.03;100.00;96703.44;5064576;28;20432;-63
2021/11/22 02:24:10;;;;;;;51.55;19.67;;;;;;;2.40;100.00;96738.25;5084296;28;20047;-63
2021/11/22 02:26:37;;;;;;;35.50;15.05;;;;;;;2.49;100.00;96758.13;5084480;28;20519;-63
2021/11/22 02:29:05;;;;;;;30.80;13.55;;;;;;;2.43;100.00;96718.44;5084743;28;20051;-63
2021/11/22 02:31:32;;;;;;;33.35;13.57;;;;;;;2.54;100.00;96747.03;5084401;28;20462;-64
2021/11/22 02:33:59;;;;;;;32.72;15.50;;;;;;;2.59;100.00;96749.59;5084445;28;20522;-64
2021/11/22 02:36:26;;;;;;;26.67;10.85;;;;;;;2.63;100.00;96742.34;5085075;28;20526;-63
2021/11/22 02:38:53;;;;;;;20.88;10.35;;;;;;;2.65;100.00;96753.75;5084880;28;20058;-63
2021/11/22 02:41:20;;;;;;;32.28;12.63;;;;;;;2.73;100.00;96755.66;5084829;28;20052;-63
2021/11/22 02:43:47;;;;;;;36.97;15.73;;;;;;;2.74;100.00;96757.25;5083531;28;20071;-65
2021/11/22 02:46:14;;;;;;;35.58;13.95;;;;;;;2.71;100.00;96755.19;5081635;28;20048;-64
2021/11/22 02:48:42;;;;;;;58.90;26.10;;;;;;;2.77;100.00;96753.88;5084411;28;20052;-64
2021/11/22 02:51:08;;;;;;;61.67;25.70;;;;;;;2.68;100.00;96748.44;5084850;28;20071;-63
2021/11/22 02:53:36;;;;;;;60.83;25.90;;;;;;;2.66;100.00;96744.41;5084327;28;20068;-64
2021/11/22 02:56:06;;;;;;;58.35;26.92;;;;;;;2.79;100.00;96743.41;5085328;28;20052;-63
2021/11/22 02:58:39;;;;;;;45.88;22.60;;;;;;;2.72;100.00;96748.56;5084568;28;20052;-64
2021/11/22 03:01:08;;;;;;;32.05;14.82;;;;;;;2.74;100.00;96751.78;5084620;28;20052;-64
2021/11/22 03:03:37;;;;;;;38.55;15.40;;;;;;;2.68;100.00;96753.91;5082971;28;20135;-63
2021/11/22 03:06:12;;;;;;;32.42;15.00;;;;;;;1.91;100.00;96689.63;5084516;28;20546;-65
2021/11/22 03:08:41;;;;;;;20.38;10.63;;;;;;;2.42;100.00;96722.31;5084489;28;20060;-63
2021/11/22 03:11:09;;;;;;;24.00;11.65;;;;;;;2.23;100.00;96708.22;5085107;28;20576;-64
2021/11/22 03:13:36;;;;;;;21.02;8.25;;;;;;;2.10;100.00;96660.03;5083567;28;20498;-64
2021/11/22 03:16:03;;;;;;;17.92;8.05;;;;;;;2.60;100.00;96734.78;5084298;28;20048;-64
2021/11/22 03:18:30;;;;;;;17.77;9.30;;;;;;;2.69;100.00;96749.22;5083722;28;20048;-64
2021/11/22 03:20:58;;;;;;;15.13;8.25;;;;;;;2.61;100.00;96753.59;5084038;28;20056;-64
2021/11/22 03:23:26;;;;;;;17.80;8.10;;;;;;;2.65;100.00;96761.97;5070146;28;20092;-64
2021/11/22 03:25:53;;;;;;;16.23;8.18;;;;;;;2.65;100.00;96761.97;5063806;28;20056;-63
2021/11/22 03:28:21;;;;;;;19.63;7.90;;;;;;;2.63;100.00;96766.94;5063679;28;20059;-63
2021/11/22 03:30:48;;;;;;;20.10;8.15;;;;;;;2.19;100.00;96729.13;5063814;28;20495;-64
2021/11/22 03:33:17;;;;;;;20.60;9.32;;;;;;;1.92;100.00;96699.44;5063879;28;20055;-63
2021/11/22 03:35:46;;;;;;;21.13;9.05;;;;;;;2.34;100.00;96769.59;5063622;28;20048;-64
2021/11/22 03:38:14;;;;;;;16.45;8.88;;;;;;;2.23;99.42;96768.34;5063531;28;20048;-64
2021/11/22 03:40:43;;;;;;;20.63;9.57;;;;;;;2.16;99.40;96770.75;5063317;28;20857;-63
2021/11/22 03:45:39;;;;;;;21.05;10.07;;;;;;;1.90;98.62;96726.28;5063757;28;20159;-63
2021/11/22 03:48:06;;;;;;;21.23;10.63;;;;;;;2.21;98.18;96774.13;5063475;28;20087;-64
2021/11/22 03:50:33;;;;;;;20.25;10.57;;;;;;;2.20;99.42;96774.41;5063461;28;20048;-64
2021/11/22 03:53:00;;;;;;;20.27;9.27;;;;;;;2.23;100.00;96782.00;5061952;28;20059;-65
2021/11/22 03:55:28;;;;;;;21.77;10.35;;;;;;;2.14;100.00;96770.25;5063854;28;20143;-64
2021/11/22 03:57:54;;;;;;;17.27;7.28;;;;;;;2.21;100.00;96757.72;5063457;28;20052;-63
2021/11/22 04:00:24;;;;;;;15.63;6.43;;;;;;;2.40;100.00;96768.31;5061995;28;20058;-65
2021/11/22 04:02:54;;;;;;;19.92;9.50;;;;;;;2.24;100.00;96764.47;5063123;28;20052;-63
2021/11/22 04:05:20;;;;;;;23.80;10.23;;;;;;;2.32;100.00;96785.50;5061708;28;20605;-63
2021/11/22 04:07:47;;;;;;;40.67;17.40;;;;;;;2.30;100.00;96779.56;5062056;28;20053;-64
2021/11/22 04:10:14;;;;;;;42.92;17.85;;;;;;;2.30;100.00;96790.50;5061425;28;20048;-63
2021/11/22 04:12:41;;;;;;;43.90;17.30;;;;;;;1.71;100.00;96702.00;5062018;28;20059;-64
2021/11/22 04:15:08;;;;;;;28.88;12.40;;;;;;;2.22;100.00;96788.56;5066231;28;20079;-65
2021/11/22 04:17:34;;;;;;;43.85;13.23;;;;;;;2.09;100.00;96784.88;5066914;28;20055;-64
2021/11/22 04:20:03;;;;;;;33.60;11.25;;;;;;;2.07;100.00;96780.88;5067209;28;20044;-64
2021/11/22 04:22:30;;;;;;;41.33;13.93;;;;;;;2.10;100.00;96785.69;5072126;28;20056;-63
2021/11/22 04:24:57;;;;;;;48.30;17.50;;;;;;;1.87;100.00;96740.53;5087461;28;20055;-63
2021/11/22 04:27:23;;;;;;;52.40;19.25;;;;;;;2.22;100.00;96794.03;5085174;28;20056;-63
2021/11/22 04:29:51;;;;;;;34.35;13.35;;;;;;;1.75;100.00;96719.38;5087315;28;20052;-63
2021/11/22 04:32:18;;;;;;;38.05;13.88;;;;;;;2.27;100.00;96796.59;5086898;28;20059;-63
2021/11/22 04:34:45;;;;;;;31.00;11.93;;;;;;;2.34;100.00;96802.41;5087079;28;20056;-64
2021/11/22 04:37:12;;;;;;;16.52;8.13;;;;;;;2.30;100.00;96798.69;5087179;28;20059;-64
2021/11/22 04:39:39;;;;;;;35.95;16.13;;;;;;;1.94;100.00;96754.53;5087533;28;20083;-63
2021/11/22 04:42:05;;;;;;;43.40;20.00;;;;;;;1.80;100.00;96732.06;5087132;28;20438;-63
2021/11/22 04:44:32;;;;;;;38.88;19.67;;;;;;;2.11;100.00;96784.56;5086997;28;20048;-63
2021/11/22 04:46:59;;;;;;;38.47;17.83;;;;;;;2.04;100.00;96776.06;5087191;28;20039;-63
2021/11/22 04:49:26;;;;;;;38.13;17.77;;;;;;;0.71;100.00;96575.06;5086876;28;20052;-63
2021/11/22 04:51:53;;;;;;;39.10;17.30;;;;;;;1.50;100.00;96717.44;5087060;28;20048;-64
2021/11/22 04:54:19;;;;;;;36.80;17.60;;;;;;;2.03;100.00;96801.75;5086434;28;20048;-63
2021/11/22 04:56:46;;;;;;;37.92;16.05;;;;;;;1.96;100.00;96812.38;5087273;28;20056;-64
2021/11/22 04:59:16;;;;;;;36.95;16.33;;;;;;;1.86;100.00;96780.72;5085292;28;20059;-63
2021/11/22 05:01:43;;;;;;;37.70;16.63;;;;;;;1.93;99.69;96802.09;5086520;28;20063;-64
2021/11/22 05:04:10;;;;;;;36.50;14.65;;;;;;;1.68;98.95;96779.09;5084822;28;20091;-64
2021/11/22 05:06:37;;;;;;;33.95;15.98;;;;;;;1.85;98.93;96822.00;5086167;28;20600;-64
2021/11/22 05:09:04;;;;;;;33.97;15.85;;;;;;;1.79;97.53;96817.81;5085123;28;20047;-63
2021/11/22 05:11:32;;;;;;;37.78;16.17;;;;;;;1.70;98.68;96819.72;5086555;28;20048;-64
2021/11/22 05:13:58;;;;;;;34.03;15.85;;;;;;;1.74;97.22;96823.44;5086574;28;20060;-64
2021/11/22 05:16:25;;;;;;;47.15;19.60;;;;;;;1.71;97.81;96827.59;5086353;28;20044;-64
2021/11/22 05:18:52;;;;;;;44.30;20.65;;;;;;;1.49;97.75;96801.22;5086571;28;20072;-63
2021/11/22 05:21:18;;;;;;;50.72;23.05;;;;;;;1.61;98.48;96851.66;5084618;28;20058;-64
2021/11/22 05:23:47;;;;;;;55.80;23.23;;;;;;;1.64;98.66;96804.63;5068891;28;20078;-65
2021/11/22 05:26:14;;;;;;;65.60;28.00;;;;;;;1.45;98.74;96785.81;5064477;28;20241;-63
2021/11/22 05:28:41;;;;;;;46.42;22.27;;;;;;;1.72;98.63;96821.03;5066054;28;20408;-63
2021/11/22 05:31:07;;;;;;;81.65;34.60;;;;;;;1.78;99.09;96832.59;5064085;28;20059;-64
2021/11/22 05:33:34;;;;;;;99.82;39.58;;;;;;;1.90;98.53;96830.03;5065300;28;20053;-63
2021/11/22 05:36:01;;;;;;;85.85;33.97;;;;;;;1.68;98.03;96800.13;5065436;28;20419;-64
2021/11/22 05:38:28;;;;;;;87.88;36.55;;;;;;;1.87;97.62;96836.13;5064641;28;20049;-63
2021/11/22 05:40:55;;;;;;;100.38;39.20;;;;;;;1.78;97.97;96821.66;5065525;28;20048;-63
2021/11/22 05:43:22;;;;;;;117.30;50.50;;;;;;;1.94;98.71;96844.66;5064199;28;20873;-63
2021/11/22 05:45:48;;;;;;;157.27;70.25;;;;;;;1.97;100.00;96850.28;5063324;28;20057;-63
2021/11/22 05:48:15;;;;;;;182.65;77.53;;;;;;;2.11;100.00;96848.19;5064464;28;20048;-63
2021/11/22 05:50:42;;;;;;;114.68;52.08;;;;;;;1.82;100.00;96784.41;5063976;28;20059;-64
2021/11/22 05:53:09;;;;;;;77.60;35.95;;;;;;;2.38;100.00;96858.81;5064174;28;20574;-63
2021/11/22 05:55:39;;;;;;;71.32;29.73;;;;;;;2.11;99.87;96831.00;5065374;28;20060;-63
2021/11/22 05:58:11;;;;;;;69.57;27.15;;;;;;;2.39;98.76;96862.31;5064256;28;20048;-64
2021/11/22 06:00:37;;;;;;;60.35;26.40;;;;;;;2.33;96.22;96844.50;5065367;28;20059;-63
2021/11/22 06:03:05;;;;;;;70.72;29.88;;;;;;;2.53;95.34;96860.25;5063514;28;20110;-63
2021/11/22 06:05:32;;;;;;;66.97;31.13;;;;;;;2.37;94.56;96872.81;5063508;28;20075;-64
2021/11/22 06:07:59;;;;;;;76.78;29.38;;;;;;;2.56;93.59;96876.00;5064863;28;20064;-63
2021/11/22 06:10:27;;;;;;;77.47;30.23;;;;;;;2.05;93.06;96800.31;5064877;28;20052;-64
2021/11/22 06:12:54;;;;;;;100.40;40.03;;;;;;;1.94;92.24;96754.53;5064850;28;20049;-61
2021/11/22 06:15:21;;;;;;;85.05;34.67;;;;;;;2.54;91.24;96837.25;5064983;28;20439;-62
2021/11/22 06:17:48;;;;;;;89.75;40.30;;;;;;;2.55;92.23;96830.63;5064999;28;20522;-63
2021/11/22 06:20:15;;;;;;;89.20;41.80;;;;;;;3.02;93.56;96881.53;5064366;28;20052;-63
2021/11/22 06:22:41;;;;;;;94.25;41.97;;;;;;;2.23;94.86;96730.09;5070199;28;20448;-64
2021/11/22 06:25:09;;;;;;;85.22;40.20;;;;;;;3.31;96.20;96870.66;5084844;28;20079;-62
2021/11/22 06:27:36;;;;;;;64.88;32.63;;;;;;;3.49;97.55;96872.22;5084787;28;20152;-62
2021/11/22 06:30:05;;;;;;;36.38;18.13;;;;;;;3.06;98.23;96781.28;5084482;28;20060;-63
2021/11/22 06:32:32;;;;;;;49.97;19.83;;;;;;;3.68;97.49;96853.44;5085011;28;20071;-62
2021/11/22 06:34:59;;;;;;;52.53;22.83;;;;;;;3.98;97.76;96876.91;5084888;28;20059;-62
2021/11/22 06:37:27;;;;;;;54.53;22.00;;;;;;;4.23;96.38;96873.22;5084256;28;20060;-62
2021/11/22 06:39:55;;;;;;;51.72;21.77;;;;;;;4.40;95.79;96875.81;5084703;28;20072;-63
2021/11/22 06:42:22;;;;;;;51.15;20.50;;;;;;;4.56;96.80;96890.53;5082704;28;20056;-63
2021/11/22 06:44:49;;;;;;;37.40;16.75;;;;;;;4.75;95.68;96876.31;5084699;28;20048;-63
2021/11/22 06:47:17;;;;;;;42.67;17.42;;;;;;;4.76;94.04;96871.66;5084107;28;20518;-63
2021/11/22 06:49:44;;;;;;;47.38;16.45;;;;;;;4.33;90.93;96803.47;5082777;28;20078;-64
2021/11/22 06:52:11;;;;;;;33.78;16.50;;;;;;;4.66;89.69;96840.72;5069213;28;20052;-70
2021/11/22 06:54:37;;;;;;;44.75;17.33;;;;;;;5.28;89.33;96883.69;5053096;28;20431;-61
2021/11/22 06:57:04;;;;;;;38.60;15.05;;;;;;;5.54;87.39;96901.47;5052188;28;20052;-63
2021/11/22 06:59:34;;;;;;;38.33;15.75;;;;;;;5.74;84.40;96883.28;5051930;28;20053;-63
2021/11/22 07:02:01;;;;;;;35.88;16.83;;;;;;;4.74;84.24;96720.28;5049257;28;20071;-64
2021/11/22 07:04:28;;;;;;;29.15;14.05;;;;;;;5.81;84.84;96884.34;5048877;28;20052;-66
2021/11/22 07:06:57;;;;;;;36.33;16.05;;;;;;;5.78;86.20;96886.97;5050470;28;20080;-67
2021/11/22 07:09:25;;;;;;;28.88;14.50;;;;;;;5.06;86.03;96755.88;5054475;28;20507;-63
2021/11/22 07:11:52;;;;;;;32.40;16.48;;;;;;;5.75;86.07;96849.19;5062308;28;20053;-67
2021/11/22 07:14:19;;;;;;;38.17;18.65;;;;;;;6.12;86.61;96883.75;5046661;28;20049;-66
2021/11/22 07:16:49;;;;;;;40.85;19.58;;;;;;;6.06;85.94;96860.41;5063426;28;20532;-63
2021/11/22 07:19:16;;;;;;;39.40;16.70;;;;;;;5.79;84.83;96819.84;5063308;28;20052;-61
2021/11/22 07:21:43;;;;;;;34.63;17.13;;;;;;;6.59;84.85;96884.81;5045550;28;20061;-59
2021/11/22 07:24:10;;;;;;;46.50;18.80;;;;;;;6.73;84.13;96881.69;5041875;28;20135;-63
2021/11/22 07:26:36;;;;;;;42.13;17.75;;;;;;;6.53;83.58;96820.16;5049853;28;20048;-63
2021/11/22 07:29:04;;;;;;;43.47;18.17;;;;;;;6.89;82.60;96842.03;5050739;28;20044;-66
2021/11/22 07:31:32;;;;;;;61.08;24.00;;;;;;;7.20;83.47;96872.41;5049848;28;20330;-65
2021/11/22 07:33:59;;;;;;;44.00;20.70;;;;;;;6.56;83.74;96730.63;5057953;28;20042;-60
2021/11/22 07:36:26;;;;;;;33.28;16.38;;;;;;;7.31;83.55;96823.09;5062184;28;20063;-60
2021/11/22 07:38:53;;;;;;;30.90;14.63;;;;;;;7.37;81.41;96783.91;5060768;28;20071;-66
2021/11/22 07:41:20;;;;;;;25.80;13.43;;;;;;;7.50;81.50;96784.63;5043629;28;20057;-68
2021/11/22 07:43:46;;;;;;;30.20;14.82;;;;;;;8.33;81.29;96875.25;5042939;28;20052;-68
2021/11/22 07:46:13;;;;;;;30.45;15.25;;;;;;;8.58;79.39;96876.59;5060915;28;20980;-67
2021/11/22 07:48:40;;;;;;;30.83;16.35;;;;;;;8.72;78.73;96866.69;5058995;28;20106;-64
2021/11/22 07:51:07;;;;;;;29.10;15.02;;;;;;;8.79;78.09;96868.75;5048051;28;20041;-61
2021/11/22 07:53:35;;;;;;;29.73;15.35;;;;;;;8.92;78.76;96864.69;5060717;28;20096;-63
2021/11/22 07:56:03;;;;;;;32.38;15.48;;;;;;;8.92;78.32;96861.94;5051721;28;20061;-64
2021/11/22 07:58:30;;;;;;;36.55;17.88;;;;;;;9.19;77.56;96858.94;5051235;28;20049;-61
2021/11/22 08:00:58;;;;;;;30.77;16.90;;;;;;;9.34;77.69;96857.25;5047702;28;20522;-67
2021/11/22 08:03:25;;;;;;;29.30;14.32;;;;;;;9.17;77.60;96816.25;5056156;28;20044;-64
2021/11/22 08:05:55;;;;;;;30.20;14.77;;;;;;;9.46;76.98;96818.38;5062832;28;20053;-64
2021/11/22 08:08:24;;;;;;;29.10;14.52;;;;;;;9.42;76.48;96789.84;5060185;28;20135;-68
2021/11/22 08:11:06;;;;;;;172.88;68.57;;;;;;;9.93;75.81;96843.66;5062678;28;20044;-64
2021/11/22 08:13:34;;;;;;;45.28;21.20;;;;;;;10.21;75.68;96869.03;5063504;28;20049;-63
2021/11/22 08:16:03;;;;;;;28.88;14.23;;;;;;;10.36;74.78;96859.78;5059947;28;20136;-63
2021/11/22 08:18:31;;;;;;;27.27;13.48;;;;;;;10.59;74.21;96866.03;5049556;28;20075;-66
2021/11/22 08:20:58;;;;;;;23.52;12.25;;;;;;;10.77;73.13;96865.47;5058658;28;20071;-63
2021/11/22 08:23:25;;;;;;;14.75;8.18;;;;;;;9.81;73.81;96741.53;5043464;28;20053;-63
2021/11/22 08:25:52;;;;;;;23.35;10.32;;;;;;;10.70;72.65;96838.50;5045136;28;20068;-63
2021/11/22 08:28:19;;;;;;;23.17;9.77;;;;;;;11.02;71.54;96856.31;5063726;28;20063;-63
2021/11/22 08:30:47;;;;;;;13.38;7.68;;;;;;;11.10;72.11;96857.19;5064074;28;20044;-63
2021/11/22 08:33:15;;;;;;;16.95;7.85;;;;;;;10.80;72.61;96814.84;5063252;28;20500;-65
2021/11/22 08:35:42;;;;;;;18.58;7.93;;;;;;;10.54;72.49;96755.59;5064181;28;20061;-66
2021/11/22 08:38:09;;;;;;;18.48;8.82;;;;;;;10.99;71.88;96817.47;5056267;28;20056;-68
2021/11/22 08:40:40;;;;;;;15.30;6.82;;;;;;;11.16;71.63;96822.44;5060660;28;20579;-62
2021/11/22 08:43:10;;;;;;;13.05;6.50;;;;;;;11.54;71.38;96866.41;5049242;28;20061;-64
2021/11/22 08:45:37;;;;;;;15.65;6.57;;;;;;;11.64;70.08;96857.41;5043794;28;20057;-63
2021/11/22 08:48:06;;;;;;;13.25;6.60;;;;;;;11.49;69.75;96802.97;5055912;28;20060;-66
2021/11/22 08:50:33;;;;;;;10.70;5.70;;;;;;;11.57;70.33;96804.63;5063965;28;20053;-65
2021/11/22 08:52:59;;;;;;;15.75;7.03;;;;;;;11.91;70.71;96850.53;5063209;28;20052;-62
2021/11/22 08:55:27;;;;;;;14.18;6.70;;;;;;;9.88;69.99;96520.31;5063663;28;20049;-65
2021/11/22 08:57:54;;;;;;;10.80;6.10;;;;;;;12.00;70.02;96845.44;5049667;28;20071;-63
2021/11/22 09:00:25;;;;;;;15.70;8.82;;;;;;;11.67;69.00;96742.91;5054535;28;20048;-63
2021/11/22 09:02:55;;;;;;;12.20;6.30;;;;;;;12.46;67.72;96843.81;5046467;28;20067;-64
2021/11/22 09:05:23;;;;;;;11.82;5.93;;;;;;;12.23;69.23;96846.03;5053648;28;20177;-62
2021/11/22 09:07:51;;;;;;;17.38;7.35;;;;;;;12.13;70.18;96839.22;5053093;28;20148;-62
2021/11/22 09:10:18;;;;;;;17.10;8.38;;;;;;;12.46;69.13;96829.91;5057977;28;20056;-64
2021/11/22 09:12:45;;;;;;;14.27;6.60;;;;;;;11.95;67.60;96723.66;5050344;28;20467;-66
2021/11/22 09:15:15;;;;;;;12.80;6.32;;;;;;;12.83;67.56;96819.41;5046825;28;20126;-65
2021/11/22 09:17:42;;;;;;;15.05;6.68;;;;;;;12.66;66.05;96789.53;5045060;28;20052;-66
2021/11/22 09:20:09;;;;;;;12.98;6.55;;;;;;;12.57;66.67;96791.88;5054087;28;20139;-66
2021/11/22 09:22:37;;;;;;;13.98;7.68;;;;;;;12.96;66.09;96826.19;5059593;28;20097;-69
2021/11/22 09:25:07;;;;;;;17.60;7.63;;;;;;;13.39;65.23;96827.97;5053326;28;20139;-69
2021/11/22 09:27:34;;;;;;;18.88;8.20;;;;;;;13.49;64.43;96804.16;5065062;28;20053;-63
2021/11/22 09:30:00;;;;;;;9.50;5.22;;;;;;;12.91;61.92;96711.81;5049458;28;20053;-64
2021/11/22 09:32:27;;;;;;;24.42;15.68;;;;;;;13.69;62.93;96847.91;5057766;28;20087;-68
2021/11/22 09:34:54;;;;;;;13.75;7.13;;;;;;;14.11;61.75;96812.94;5054685;28;20095;-65
2021/11/22 09:37:21;;;;;;;10.20;5.63;;;;;;;14.12;62.29;96815.31;5046387;28;20096;-70
2021/11/22 09:39:48;;;;;;;18.95;8.20;;;;;;;14.20;61.70;96810.53;5050490;28;20048;-63
2021/11/22 09:42:15;;;;;;;9.52;4.88;;;;;;;14.07;61.65;96806.59;5059040;28;20128;-62
2021/11/22 09:44:42;;;;;;;10.90;5.95;;;;;;;14.02;61.45;96781.91;5054425;28;20049;-69
2021/11/22 09:47:09;;;;;;;11.02;4.63;;;;;;;13.70;63.11;96799.41;5052236;28;20052;-66
2021/11/22 09:49:36;;;;;;;9.82;5.15;;;;;;;12.17;65.35;96617.13;5060134;28;20045;-72
2021/11/22 09:52:04;;;;;;;10.93;4.63;;;;;;;13.27;65.65;96797.75;5053681;28;20067;-65
2021/11/22 09:54:31;;;;;;;14.52;6.30;;;;;;;13.24;66.60;96769.91;5052402;28;20351;-68
2021/11/22 09:56:57;;;;;;;13.82;5.30;;;;;;;13.60;64.00;96794.63;5064245;28;20084;-71
2021/11/22 09:59:24;;;;;;;8.15;4.65;;;;;;;13.61;63.22;96787.88;5053791;28;20135;-69
2021/11/22 10:01:55;;;;;;;7.35;3.97;;;;;;;13.32;62.16;96755.66;5057131;28;20480;-69
2021/11/22 10:04:29;;;;;;;9.38;5.13;;;;;;;13.95;61.15;96788.28;5056717;28;20144;-63
2021/11/22 10:07:01;;;;;;;9.23;5.07;;;;;;;13.74;62.66;96776.34;5058896;28;20491;-69
2021/11/22 10:09:35;;;;;;;8.73;4.32;;;;;;;13.74;63.20;96781.94;5060784;28;20045;-63
2021/11/22 10:12:13;;;;;;;6.90;4.43;;;;;;;13.78;61.38;96777.94;5055218;28;20045;-64
2021/11/22 10:14:42;;;;;;;8.70;4.93;;;;;;;13.58;62.00;96774.75;5055535;28;20404;-62
2021/11/22 10:17:18;;;;;;;10.45;5.35;;;;;;;13.16;61.77;96691.25;5046752;28;20235;-64
2021/11/22 10:19:45;;;;;;;16.52;5.75;;;;;;;13.98;61.22;96730.97;5057525;28;20533;-62
2021/11/22 10:22:17;;;;;;;9.27;5.07;;;;;;;13.66;59.85;96692.84;5058833;28;20106;-67
2021/11/22 10:24:44;;;;;;;9.48;4.78;;;;;;;14.44;59.56;96771.53;5043052;28;20084;-70
2021/11/22 10:27:11;;;;;;;21.13;10.52;;;;;;;13.36;58.65;96614.56;5049961;28;20052;-64
2021/11/22 10:29:38;;;;;;;11.25;7.13;;;;;;;14.24;59.46;96764.78;5045246;28;20610;-68
2021/11/22 10:32:07;;;;;;;7.80;4.65;;;;;;;14.01;58.41;96707.91;5053309;28;20045;-63
2021/11/22 10:34:37;;;;;;;28.38;9.00;;;;;;;14.82;57.26;96773.41;5051421;28;20503;-63
2021/11/22 10:37:06;;;;;;;10.70;4.80;;;;;;;13.60;57.19;96622.06;5050792;28;20052;-67
2021/11/22 10:39:35;;;;;;;9.13;4.95;;;;;;;14.13;56.89;96655.34;5051993;28;20135;-70
2021/11/22 10:42:22;;;;;;;8.57;4.72;;;;;;;15.11;56.46;96749.75;5049482;28;20047;-70
2021/11/22 10:44:55;;;;;;;11.15;5.35;;;;;;;15.28;54.95;96758.41;5061860;28;20045;-60
2021/11/22 10:47:22;;;;;;;8.32;5.13;;;;;;;15.34;54.22;96728.88;5061568;28;20369;-64
2021/11/22 10:49:54;;;;;;;8.85;4.88;;;;;;;14.12;54.48;96564.63;5057473;28;20079;-68
2021/11/22 10:55:04;;;;;;;9.93;4.88;;;;;;;13.35;55.00;96426.59;5045067;28;20051;-61
2021/11/22 10:57:40;;;;;;;6.10;3.75;;;;;;;13.96;54.02;96493.91;5044056;28;20135;-69
2021/11/22 11:00:28;;;;;;;8.32;4.00;;;;;;;15.53;53.70;96740.34;5056553;28;20147;-68
2021/11/22 11:02:57;;;;;;;7.00;4.03;;;;;;;15.67;53.14;96743.03;5048173;28;20516;-68
2021/11/22 11:05:29;;;;;;;5.82;3.80;;;;;;;15.79;53.26;96738.97;5056077;28;20134;-63
2021/11/22 11:08:05;;;;;;;6.32;4.15;;;;;;;16.00;52.60;96738.75;5052214;28;20568;-63
2021/11/22 11:10:33;;;;;;;5.55;3.45;;;;;;;16.15;51.63;96743.03;5063831;28;20067;-72
2021/11/22 11:13:00;;;;;;;5.22;3.63;;;;;;;16.17;51.46;96749.78;5054784;28;20053;-70
2021/11/22 11:15:27;;;;;;;6.30;4.05;;;;;;;14.87;51.48;96538.72;5044101;28;20500;-70
2021/11/22 11:17:54;;;;;;;8.00;3.67;;;;;;;15.66;52.54;96729.47;5044262;28;20127;-74
2021/11/22 11:20:22;;;;;;;6.68;3.97;;;;;;;16.07;52.45;96728.31;5049402;28;20056;-67
2021/11/22 11:22:51;;;;;;;8.73;4.68;;;;;;;15.66;52.13;96613.00;5058141;28;20071;-67
2021/11/22 11:25:24;;;;;;;6.20;3.97;;;;;;;15.57;52.20;96637.81;5052689;28;20054;-65
2021/11/22 11:28:11;;;;;;;6.03;4.20;;;;;;;16.41;50.97;96720.78;5053740;28;20543;-66
2021/11/22 11:30:39;;;;;;;5.30;3.55;;;;;;;15.31;52.44;96646.78;5046568;28;20057;-68
2021/11/22 11:33:06;;;;;;;7.50;4.15;;;;;;;15.57;52.77;96721.56;5052663;28;20056;-65